Airfield :
LOGIN :

Register | Disclaimer

   EN    FR    IT 

 










Legend :    VFR   Marginal VFR   IFR   Intensive IFR   Very Intensive IFR
Visi :
Ceiling :
>= 8 km
>= 3000ft
5 to 8 km
1000 to 3000 ft
1500m to 5 km
500 to 1000 ft
800 to 1500m
200 to 500 ft
< 800m
< 200 ft
Symbols :   Thunderstorms  Fog  Heavy snow  Heavy precipitations  Wind > 20 kt
SIGMETs :     Misc.  Thunderstorms  Icing  Turbulence  Mountain Waves  Volcanic Ashes







- Airport Elevation : 162 ft
- IATA code : BOD
- Download approach charts


LFBD - Bordeaux / Merignac

CURRENT METAR :
  • 181730Z AUTO 03005KT CAVOK 26/17 Q1016 NOSIG

EXPIRED METARs :
  • 181700Z AUTO 02005KT 350V050 CAVOK 27/17 Q1016 TEMPO SCT055TCU
  • 181630Z AUTO 01007KT 320V050 CAVOK 27/17 Q1016 TEMPO SCT055TCU
  • 181600Z AUTO 05006KT 010V110 CAVOK 27/17 Q1016 TEMPO SCT055TCU
  • 181530Z AUTO 02007KT 360V060 9999 SCT048 BKN120 27/17 Q1016 TEMPO SCT055TCU
  • 181500Z AUTO VRB03KT 9999 FEW045 BKN110 28/17 Q1016 TEMPO SCT055TCU
  • 181430Z AUTO 07003KT 360V120 CAVOK 28/17 Q1016 TEMPO SCT055TCU

TAF TAF LFBD
Valid from the 18 at 18:00 until the 20 at 00:00 UTC


181700Z 1818/1924 33005KT CAVOK TX29/1914Z TN17/1905Z
PROB30 1903/1908 4000 BR BKN006
BECMG 1910/1912 SCT030
BECMG 1917/1919 CAVOK
ATIS : +33 5 57 92 81 04
No reported NOTAMs for that airfield.
1 SIGMET reported for the Bordeaux FIR (LFBB) :
 
Embedded thunderstorms
LFBB SIGMET 2 VALID 181620/181800 LFPW
LFBB BORDEAUX FIR/UIR EMBD TS OBS WI N4615 E00300 - N4445 E00245 - N4530 E00200 - N4615 E00300 TOP FL340 STNR NC=



MET'MAP, your aeronautical weather chart ! - Copyright ORBIFLY December 2007 - Disclaimer

ORBIFLY MET'MAP TEAM :

Programming & Development : Alexandra Zaïnal
Concept & Development : Baudouin d'Aumeries
Co-Development & Prog : Marc-Olivier Méhu
Technical & hardware support : Manuel Goepfert

Contact : metmap@orbifly.com




SOURCES & CREDITS :

   NOAA